createdAt,value
2017-10-10T00:02:25.445Z,9.00
2017-10-10T00:04:52.913Z,9.00
2017-10-10T00:07:20.388Z,9.00
2017-10-10T00:09:48.637Z,9.00
2017-10-10T00:12:16.433Z,9.00
2017-10-10T00:14:45.006Z,9.10
2017-10-10T00:17:13.261Z,9.20
2017-10-10T00:19:40.731Z,9.10
2017-10-10T00:22:08.202Z,9.20
2017-10-10T00:24:36.461Z,9.10
2017-10-10T00:27:04.174Z,9.00
2017-10-10T00:29:31.644Z,9.00
2017-10-10T00:31:59.524Z,9.00
2017-10-10T00:34:26.994Z,9.00
2017-10-10T00:36:54.466Z,9.00
2017-10-10T00:39:22.725Z,9.00
2017-10-10T00:41:50.193Z,9.00
2017-10-10T00:44:18.433Z,9.20
2017-10-10T00:46:45.922Z,9.20
2017-10-10T00:49:13.389Z,9.20
2017-10-10T00:51:41.625Z,9.20
2017-10-10T00:54:09.110Z,9.20
2017-10-10T00:56:36.586Z,9.30
2017-10-10T00:59:04.822Z,9.30
2017-10-10T01:01:32.319Z,9.30
2017-10-10T01:03:59.814Z,9.30
2017-10-10T01:06:27.289Z,9.40
2017-10-10T01:08:54.774Z,9.40
2017-10-10T01:11:22.260Z,9.40
2017-10-10T01:13:50.489Z,9.40
2017-10-10T01:16:17.977Z,9.40
2017-10-10T01:18:46.205Z,9.40
2017-10-10T01:21:13.674Z,9.40
2017-10-10T01:23:41.161Z,9.20
2017-10-10T01:26:09.400Z,9.10
2017-10-10T01:28:36.874Z,9.10
2017-10-10T01:31:04.371Z,9.20
2017-10-10T01:33:31.842Z,9.20
2017-10-10T01:35:59.309Z,9.10
2017-10-10T01:38:26.798Z,9.10
2017-10-10T01:40:54.273Z,9.00
2017-10-10T01:43:21.740Z,8.90
2017-10-10T01:45:49.994Z,8.80
2017-10-10T01:48:17.473Z,8.80
2017-10-10T01:50:45.706Z,8.70
2017-10-10T01:53:13.197Z,8.70
2017-10-10T01:55:40.665Z,8.70
2017-10-10T01:58:08.913Z,8.70
2017-10-10T02:00:36.395Z,8.70
2017-10-10T02:03:04.629Z,8.60
2017-10-10T02:05:32.122Z,8.60
2017-10-10T02:08:00.356Z,8.60
2017-10-10T02:10:27.828Z,8.60
2017-10-10T02:12:55.318Z,8.60
2017-10-10T02:15:23.555Z,8.40
2017-10-10T02:17:51.021Z,8.40
2017-10-10T02:20:18.522Z,8.40
2017-10-10T02:22:45.990Z,8.40
2017-10-10T02:25:13.457Z,8.40
2017-10-10T02:27:40.936Z,8.40
2017-10-10T02:30:08.410Z,8.40
2017-10-10T02:32:35.909Z,8.40
2017-10-10T02:35:03.386Z,8.40
2017-10-10T02:37:30.861Z,8.40
2017-10-10T02:39:58.351Z,8.40
2017-10-10T02:42:26.602Z,8.40
2017-10-10T02:44:54.073Z,8.40
2017-10-10T02:47:21.571Z,8.40
2017-10-10T02:49:49.045Z,8.40
2017-10-10T02:52:16.519Z,8.40
2017-10-10T02:54:44.010Z,8.40
2017-10-10T02:57:11.489Z,8.40
2017-10-10T02:59:39.729Z,8.50
2017-10-10T03:02:07.222Z,8.50
2017-10-10T03:04:35.459Z,8.50
2017-10-10T03:07:02.962Z,8.50
2017-10-10T03:09:30.425Z,8.50
2017-10-10T03:11:57.895Z,8.60
2017-10-10T03:14:25.385Z,8.60
2017-10-10T03:16:52.858Z,8.60
2017-10-10T03:19:20.330Z,8.60
2017-10-10T03:21:48.581Z,8.70
2017-10-10T03:24:16.057Z,8.70
2017-10-10T03:26:43.525Z,8.80
2017-10-10T03:29:11.773Z,8.60
2017-10-10T03:31:39.249Z,8.60
2017-10-10T03:34:07.489Z,8.30
2017-10-10T03:36:34.977Z,8.30
2017-10-10T03:39:02.450Z,8.20
2017-10-10T03:41:30.965Z,8.20
2017-10-10T03:43:58.449Z,8.20
2017-10-10T03:46:25.921Z,8.20
2017-10-10T03:48:53.742Z,8.30
2017-10-10T03:51:21.212Z,8.30
2017-10-10T03:53:48.692Z,8.30
2017-10-10T03:56:16.185Z,8.30
2017-10-10T03:58:44.419Z,8.20
2017-10-10T04:01:11.901Z,8.10
2017-10-10T04:03:40.157Z,8.10
2017-10-10T04:06:07.675Z,8.10
2017-10-10T04:08:35.198Z,8.10
2017-10-10T04:11:03.459Z,8.00
2017-10-10T04:13:31.037Z,8.00
2017-10-10T04:15:59.311Z,8.00
2017-10-10T04:18:27.578Z,8.00
2017-10-10T04:20:55.817Z,8.00
2017-10-10T04:23:23.317Z,7.90
2017-10-10T04:25:51.557Z,7.80
2017-10-10T04:28:19.050Z,7.80
2017-10-10T04:30:47.310Z,7.80
2017-10-10T04:33:14.785Z,7.80
2017-10-10T04:35:43.022Z,7.90
2017-10-10T04:38:10.521Z,7.90
2017-10-10T04:40:38.760Z,8.20
2017-10-10T04:43:06.234Z,8.10
2017-10-10T04:45:33.721Z,8.20
2017-10-10T04:48:01.207Z,8.30
2017-10-10T04:50:28.749Z,8.30
2017-10-10T04:52:56.247Z,8.40
2017-10-10T04:55:23.726Z,8.40
2017-10-10T04:57:52.025Z,8.40
2017-10-10T05:00:19.502Z,8.40
2017-10-10T05:02:46.973Z,8.40
2017-10-10T05:05:14.461Z,8.30
2017-10-10T05:07:41.937Z,8.20
2017-10-10T05:10:10.177Z,8.20
2017-10-10T05:12:37.669Z,8.20
2017-10-10T05:15:05.905Z,8.30
2017-10-10T05:17:33.389Z,8.30
2017-10-10T05:20:00.861Z,8.40
2017-10-10T05:22:29.098Z,8.50
2017-10-10T05:24:56.589Z,8.50
2017-10-10T05:27:24.825Z,8.50
2017-10-10T05:29:52.293Z,8.50
2017-10-10T05:32:19.782Z,8.50
2017-10-10T05:34:48.016Z,8.60
2017-10-10T05:37:15.505Z,8.60
2017-10-10T05:39:42.977Z,8.60
2017-10-10T05:42:11.210Z,8.70
2017-10-10T05:44:38.697Z,8.70
2017-10-10T05:47:06.162Z,8.80
2017-10-10T05:49:34.393Z,8.90
2017-10-10T05:52:02.686Z,9.00
2017-10-10T05:54:30.153Z,9.00
2017-10-10T05:56:57.873Z,9.10
2017-10-10T05:59:25.358Z,9.10
2017-10-10T06:01:52.825Z,9.10
2017-10-10T06:04:20.323Z,9.10
2017-10-10T06:06:47.827Z,9.10
2017-10-10T06:09:15.293Z,9.00
2017-10-10T06:11:42.781Z,8.90
2017-10-10T06:14:11.017Z,8.70
2017-10-10T06:16:38.946Z,8.70
2017-10-10T06:19:06.438Z,8.80
2017-10-10T06:21:33.901Z,8.80
2017-10-10T06:24:01.374Z,8.90
2017-10-10T06:26:29.098Z,9.00
2017-10-10T06:28:56.566Z,9.00
2017-10-10T06:31:24.054Z,8.90
2017-10-10T06:33:51.524Z,9.00
2017-10-10T06:36:19.757Z,9.30
2017-10-10T06:38:47.245Z,9.30
2017-10-10T06:41:14.717Z,9.40
2017-10-10T06:43:42.974Z,9.30
2017-10-10T06:46:10.438Z,9.20
2017-10-10T06:48:37.901Z,9.50
2017-10-10T06:51:05.410Z,9.60
2017-10-10T06:53:32.877Z,9.70
2017-10-10T06:56:00.346Z,9.80
2017-10-10T06:58:27.834Z,10.00
2017-10-10T07:00:56.078Z,10.00
2017-10-10T07:03:23.569Z,10.00
2017-10-10T07:05:51.805Z,10.20
2017-10-10T07:08:19.280Z,10.10
2017-10-10T07:10:46.775Z,10.30
2017-10-10T07:13:14.260Z,10.30
2017-10-10T07:15:41.733Z,10.30
2017-10-10T07:18:09.226Z,10.30
2017-10-10T07:20:37.470Z,10.40
2017-10-10T07:23:04.948Z,10.40
2017-10-10T07:25:32.446Z,10.50
2017-10-10T07:27:59.937Z,10.50
2017-10-10T07:30:27.417Z,10.50
2017-10-10T07:32:54.909Z,10.60
2017-10-10T07:35:22.385Z,10.60
2017-10-10T07:37:49.853Z,10.60
2017-10-10T07:40:17.337Z,10.70
2017-10-10T07:42:44.814Z,10.70
2017-10-10T07:45:13.089Z,10.90
2017-10-10T07:47:40.591Z,10.90
2017-10-10T07:50:08.068Z,10.90
2017-10-10T07:52:35.561Z,11.00
2017-10-10T07:55:03.807Z,11.00
2017-10-10T07:57:31.289Z,11.00
2017-10-10T07:59:58.785Z,11.00
2017-10-10T08:02:27.034Z,11.30
2017-10-10T08:04:55.297Z,11.40
2017-10-10T08:07:22.769Z,11.30
2017-10-10T08:09:51.014Z,11.50
2017-10-10T08:12:18.501Z,11.50
2017-10-10T08:14:45.974Z,11.60
2017-10-10T08:17:13.470Z,11.60
2017-10-10T08:19:40.945Z,11.70
2017-10-10T08:22:08.417Z,11.70
2017-10-10T08:24:35.911Z,11.90
2017-10-10T08:27:03.382Z,12.00
2017-10-10T08:29:30.862Z,12.10
2017-10-10T08:31:58.354Z,12.20
2017-10-10T08:34:26.606Z,12.20
2017-10-10T08:36:54.098Z,12.20
2017-10-10T08:39:22.334Z,12.30
2017-10-10T08:41:49.811Z,12.20
2017-10-10T08:44:18.081Z,12.40
2017-10-10T08:46:45.558Z,12.40
2017-10-10T08:49:13.864Z,12.30
2017-10-10T08:51:41.354Z,12.30
2017-10-10T08:54:08.830Z,12.40
2017-10-10T08:56:36.322Z,12.40
2017-10-10T08:59:03.794Z,12.50
2017-10-10T09:01:31.266Z,12.70
2017-10-10T09:03:58.755Z,12.70
2017-10-10T09:06:26.229Z,12.60
2017-10-10T09:08:54.470Z,12.50
2017-10-10T09:11:21.962Z,12.50
2017-10-10T09:13:50.207Z,12.50
2017-10-10T09:16:17.701Z,12.50
2017-10-10T09:18:45.189Z,12.60
2017-10-10T09:21:12.661Z,12.60
2017-10-10T09:23:40.157Z,12.50
2017-10-10T09:26:07.633Z,12.30
2017-10-10T09:28:35.897Z,12.10
2017-10-10T09:31:04.135Z,11.90
2017-10-10T09:33:31.605Z,11.90
2017-10-10T09:35:59.101Z,11.80
2017-10-10T09:38:26.584Z,11.70
2017-10-10T09:40:54.062Z,11.70
2017-10-10T09:43:21.574Z,11.60
2017-10-10T09:45:49.053Z,11.70
2017-10-10T09:48:16.546Z,11.70
2017-10-10T09:50:44.018Z,11.70
2017-10-10T09:53:11.494Z,11.70
2017-10-10T09:55:39.753Z,11.80
2017-10-10T09:58:07.239Z,11.80
2017-10-10T10:00:34.722Z,12.00
2017-10-10T10:03:02.226Z,12.00
2017-10-10T10:05:29.706Z,12.00
2017-10-10T10:07:57.498Z,12.10
2017-10-10T10:10:24.997Z,12.20
2017-10-10T10:12:52.469Z,12.20
2017-10-10T10:15:20.705Z,12.20
2017-10-10T10:17:48.197Z,12.20
2017-10-10T10:20:15.666Z,12.30
2017-10-10T10:22:43.910Z,12.40
2017-10-10T10:25:11.410Z,12.30
2017-10-10T10:27:38.886Z,12.50
2017-10-10T10:30:06.390Z,12.50
2017-10-10T10:32:34.797Z,12.50
2017-10-10T10:35:03.038Z,12.50
2017-10-10T10:37:30.530Z,12.50
2017-10-10T10:39:58.774Z,12.70
2017-10-10T10:42:26.273Z,12.70
2017-10-10T10:44:53.746Z,12.70
2017-10-10T10:47:21.221Z,12.70
2017-10-10T10:49:48.761Z,12.90
2017-10-10T10:52:16.234Z,12.80
2017-10-10T10:54:43.717Z,12.80
2017-10-10T10:57:11.201Z,12.80
2017-10-10T10:59:39.445Z,12.90
2017-10-10T11:02:06.941Z,12.90
2017-10-10T11:04:35.181Z,12.80
2017-10-10T11:07:02.658Z,12.80
2017-10-10T11:09:30.918Z,12.80
2017-10-10T11:11:58.400Z,12.80
2017-10-10T11:14:26.918Z,13.00
2017-10-10T11:16:54.393Z,13.00
2017-10-10T11:19:21.866Z,13.00
2017-10-10T11:21:49.374Z,12.90
2017-10-10T11:24:16.848Z,12.90
2017-10-10T11:26:44.326Z,12.90
2017-10-10T11:29:11.821Z,12.70
2017-10-10T11:31:40.058Z,12.70
2017-10-10T11:34:07.582Z,12.70
2017-10-10T11:36:35.079Z,12.70
2017-10-10T11:39:02.581Z,12.70
2017-10-10T11:41:30.060Z,12.80
2017-10-10T11:43:57.554Z,12.90
2017-10-10T11:46:25.033Z,13.00
2017-10-10T11:48:52.531Z,13.10
2017-10-10T11:51:20.005Z,13.10
2017-10-10T11:53:47.481Z,13.10
2017-10-10T11:56:14.974Z,13.10
2017-10-10T11:58:44.023Z,12.60
2017-10-10T12:01:11.519Z,12.60
2017-10-10T12:03:39.786Z,12.30
2017-10-10T12:06:07.282Z,12.30
2017-10-10T12:08:34.758Z,12.30
2017-10-10T12:11:02.253Z,12.10
2017-10-10T12:13:29.730Z,12.10
2017-10-10T12:15:57.966Z,12.10
2017-10-10T12:18:25.462Z,12.10
2017-10-10T12:20:53.702Z,12.20
2017-10-10T12:23:21.194Z,12.10
2017-10-10T12:25:49.458Z,12.20
2017-10-10T12:28:16.928Z,12.20
2017-10-10T12:30:45.205Z,12.20
2017-10-10T12:33:13.441Z,12.10
2017-10-10T12:35:40.916Z,12.10
2017-10-10T12:38:08.487Z,12.10
2017-10-10T12:40:36.729Z,12.10
2017-10-10T12:43:04.211Z,12.10
2017-10-10T12:45:32.047Z,12.10
2017-10-10T12:47:59.526Z,12.20
2017-10-10T12:50:26.997Z,12.20
2017-10-10T12:52:55.250Z,12.10
2017-10-10T12:55:22.727Z,12.10
2017-10-10T12:57:50.989Z,12.40
2017-10-10T13:00:18.466Z,12.40
2017-10-10T13:02:46.706Z,12.50
2017-10-10T13:05:14.313Z,12.50
2017-10-10T13:07:41.809Z,12.50
2017-10-10T13:10:09.306Z,12.60
2017-10-10T13:12:37.553Z,12.60
2017-10-10T13:15:05.034Z,12.60
2017-10-10T13:17:32.525Z,12.70
2017-10-10T13:20:00.008Z,12.70
2017-10-10T13:22:28.318Z,12.70
2017-10-10T13:24:56.049Z,12.60
2017-10-10T13:27:23.522Z,12.60
2017-10-10T13:29:55.375Z,12.50
2017-10-10T13:32:22.881Z,12.60
2017-10-10T13:34:51.117Z,12.50
2017-10-10T13:37:18.596Z,12.50
2017-10-10T13:39:46.088Z,12.40
2017-10-10T13:42:13.906Z,12.50
2017-10-10T13:44:41.416Z,12.40
2017-10-10T13:47:09.707Z,12.40
2017-10-10T13:49:37.469Z,12.40
2017-10-10T13:52:05.034Z,12.40
2017-10-10T13:54:32.528Z,12.50
2017-10-10T13:57:00.049Z,12.50
2017-10-10T13:59:27.525Z,12.50
2017-10-10T14:01:55.022Z,12.50
2017-10-10T14:04:24.471Z,12.50
2017-10-10T14:06:51.966Z,12.50
2017-10-10T14:09:19.447Z,12.50
2017-10-10T14:11:47.685Z,12.50
2017-10-10T14:14:15.178Z,12.50
2017-10-10T14:16:44.713Z,12.50
2017-10-10T14:19:12.189Z,12.50
2017-10-10T14:21:39.697Z,12.50
2017-10-10T14:24:07.937Z,12.50
2017-10-10T14:26:35.459Z,12.50
2017-10-10T14:29:02.935Z,12.60
2017-10-10T14:31:30.406Z,12.60
2017-10-10T14:33:57.893Z,12.50
2017-10-10T14:36:26.149Z,12.60
2017-10-10T14:38:53.733Z,12.60
2017-10-10T14:41:21.973Z,12.60
2017-10-10T14:43:49.444Z,12.60
2017-10-10T14:46:16.938Z,12.60
2017-10-10T14:48:44.409Z,12.60
2017-10-10T14:51:11.877Z,12.60
2017-10-10T14:53:39.365Z,12.60
2017-10-10T14:56:06.997Z,12.60
2017-10-10T14:58:34.477Z,12.60
2017-10-10T15:01:01.973Z,12.60
2017-10-10T15:03:30.210Z,12.60
2017-10-10T15:05:57.690Z,12.60
2017-10-10T15:08:25.944Z,12.70
2017-10-10T15:10:53.417Z,12.70
2017-10-10T15:13:20.913Z,12.70
2017-10-10T15:15:48.390Z,12.70
2017-10-10T15:18:15.918Z,12.70
2017-10-10T15:20:43.420Z,12.70
2017-10-10T15:23:10.898Z,12.80
2017-10-10T15:25:38.369Z,12.80
2017-10-10T15:28:06.632Z,12.80
2017-10-10T15:30:34.177Z,12.80
2017-10-10T15:33:01.677Z,12.80
2017-10-10T15:35:29.160Z,12.90
2017-10-10T15:37:56.633Z,12.90
2017-10-10T15:40:24.146Z,12.90
2017-10-10T15:42:52.389Z,12.90
2017-10-10T15:45:19.861Z,12.90
2017-10-10T15:47:47.453Z,12.90
2017-10-10T15:50:15.027Z,12.90
2017-10-10T15:52:42.731Z,12.90
2017-10-10T15:55:10.257Z,12.90
2017-10-10T15:57:37.752Z,12.90
2017-10-10T16:00:06.076Z,12.90
2017-10-10T16:02:33.790Z,12.90
2017-10-10T16:05:02.106Z,12.90
2017-10-10T16:07:29.673Z,12.90
2017-10-10T16:09:57.161Z,12.90
2017-10-10T16:12:24.637Z,13.00
2017-10-10T16:14:52.133Z,12.90
2017-10-10T16:17:19.610Z,12.70
2017-10-10T16:19:47.151Z,12.70
2017-10-10T16:22:14.765Z,12.70
2017-10-10T16:24:42.309Z,12.70
2017-10-10T16:27:09.899Z,12.70
2017-10-10T16:29:38.205Z,12.70
2017-10-10T16:32:06.100Z,12.70
2017-10-10T16:34:34.523Z,12.70
2017-10-10T16:37:02.957Z,12.70
2017-10-10T16:39:30.582Z,12.70
2017-10-10T16:41:58.854Z,12.70
2017-10-10T16:44:27.284Z,12.70
2017-10-10T16:46:55.030Z,12.70
2017-10-10T16:49:22.533Z,12.70
2017-10-10T16:51:50.005Z,12.70
2017-10-10T16:54:18.246Z,12.70
2017-10-10T16:56:45.769Z,12.70
2017-10-10T16:59:13.542Z,12.70
2017-10-10T17:01:41.021Z,12.70
2017-10-10T17:04:08.525Z,12.70
2017-10-10T17:06:36.762Z,12.70
2017-10-10T17:09:04.246Z,12.60
2017-10-10T17:11:32.517Z,12.60
2017-10-10T17:14:00.121Z,12.60
2017-10-10T17:16:27.609Z,12.50
2017-10-10T17:18:55.117Z,12.50
2017-10-10T17:21:22.606Z,12.50
2017-10-10T17:23:51.268Z,12.40
2017-10-10T17:26:18.779Z,12.40
2017-10-10T17:28:46.266Z,12.30
2017-10-10T17:31:14.510Z,12.40
2017-10-10T17:33:42.007Z,12.40
2017-10-10T17:36:09.481Z,12.40
2017-10-10T17:38:36.989Z,12.40
2017-10-10T17:41:04.461Z,12.30
2017-10-10T17:43:32.701Z,12.30
2017-10-10T17:46:00.193Z,12.30
2017-10-10T17:48:28.431Z,12.20
2017-10-10T17:50:55.902Z,12.20
2017-10-10T17:53:23.393Z,12.20
2017-10-10T17:55:51.189Z,12.20
2017-10-10T17:58:18.673Z,12.20
2017-10-10T18:00:46.169Z,12.20
2017-10-10T18:03:14.413Z,12.20
2017-10-10T18:05:41.893Z,12.10
2017-10-10T18:08:10.164Z,12.10
2017-10-10T18:10:37.634Z,12.10
2017-10-10T18:13:05.905Z,12.00
2017-10-10T18:15:34.190Z,12.10
2017-10-10T18:18:01.677Z,12.10
2017-10-10T18:20:29.145Z,12.10
2017-10-10T18:22:57.457Z,12.00
2017-10-10T18:25:24.933Z,12.00
2017-10-10T18:27:53.174Z,11.90
2017-10-10T18:30:20.801Z,11.90
2017-10-10T18:32:48.278Z,11.90
2017-10-10T18:35:18.930Z,11.80
2017-10-10T18:37:46.569Z,11.80
2017-10-10T18:40:14.039Z,11.80
2017-10-10T18:42:41.540Z,11.70
2017-10-10T18:45:09.780Z,11.70
2017-10-10T18:47:37.253Z,11.70
2017-10-10T18:50:05.517Z,11.70
2017-10-10T18:52:32.993Z,11.70
2017-10-10T18:55:01.446Z,11.70
2017-10-10T18:57:28.933Z,11.70
2017-10-10T18:59:57.204Z,11.70
2017-10-10T19:02:25.549Z,11.80
2017-10-10T19:04:53.024Z,11.80
2017-10-10T19:07:20.497Z,11.80
2017-10-10T19:09:48.994Z,11.80
2017-10-10T19:12:16.615Z,11.80
2017-10-10T19:14:44.381Z,11.80
2017-10-10T19:17:12.151Z,11.70
2017-10-10T19:19:40.785Z,11.70
2017-10-10T19:22:08.527Z,11.70
2017-10-10T19:24:36.254Z,11.70
2017-10-10T19:27:04.185Z,11.70
2017-10-10T19:29:31.694Z,11.70
2017-10-10T19:31:59.190Z,11.70
2017-10-10T19:34:26.661Z,11.70
2017-10-10T19:36:54.133Z,11.70
2017-10-10T19:39:21.626Z,11.50
2017-10-10T19:41:49.869Z,11.60
2017-10-10T19:44:17.337Z,11.50
2017-10-10T19:46:44.834Z,11.50
2017-10-10T19:49:12.327Z,11.50
2017-10-10T19:51:39.805Z,11.40
2017-10-10T19:54:07.294Z,11.40
2017-10-10T19:56:35.538Z,11.40
2017-10-10T19:59:03.032Z,11.40
2017-10-10T20:01:31.273Z,11.30
2017-10-10T20:03:58.750Z,11.30
2017-10-10T20:06:27.016Z,11.10
2017-10-10T20:08:54.485Z,11.10
2017-10-10T20:11:22.761Z,11.20
2017-10-10T20:13:51.029Z,11.20
2017-10-10T20:16:18.501Z,11.20
2017-10-10T20:18:46.771Z,11.20
2017-10-10T20:21:15.013Z,11.20
2017-10-10T20:23:42.490Z,11.20
2017-10-10T20:26:09.983Z,11.10
2017-10-10T20:28:37.455Z,11.10
2017-10-10T20:31:04.934Z,11.00
2017-10-10T20:33:34.058Z,11.00
2017-10-10T20:36:01.537Z,11.00
2017-10-10T20:38:29.855Z,11.10
2017-10-10T20:40:57.350Z,11.10
2017-10-10T20:43:24.826Z,11.10
2017-10-10T20:45:53.066Z,11.00
2017-10-10T20:48:20.557Z,11.00
2017-10-10T20:50:48.797Z,10.90
2017-10-10T20:53:16.271Z,10.90
2017-10-10T20:55:43.762Z,10.70
2017-10-10T20:58:11.241Z,10.70
2017-10-10T21:00:38.733Z,10.80
2017-10-10T21:03:06.214Z,10.80
2017-10-10T21:05:34.465Z,10.80
2017-10-10T21:08:01.961Z,10.70
2017-10-10T21:10:29.439Z,10.60
2017-10-10T21:12:56.913Z,10.60
2017-10-10T21:15:24.406Z,10.40
2017-10-10T21:17:51.877Z,10.40
2017-10-10T21:20:20.109Z,10.50
2017-10-10T21:22:47.597Z,10.50
2017-10-10T21:25:15.069Z,10.50
2017-10-10T21:27:43.535Z,10.70
2017-10-10T21:30:11.025Z,10.70
2017-10-10T21:32:38.493Z,10.70
2017-10-10T21:35:05.985Z,10.60
2017-10-10T21:37:33.461Z,10.70
2017-10-10T21:40:00.936Z,10.80
2017-10-10T21:42:29.194Z,10.90
2017-10-10T21:44:56.670Z,10.90
2017-10-10T21:47:24.913Z,11.10
2017-10-10T21:49:52.406Z,11.10
2017-10-10T21:52:20.645Z,11.10
2017-10-10T21:54:48.137Z,11.10
2017-10-10T21:57:16.373Z,11.20
2017-10-10T21:59:43.842Z,11.10
2017-10-10T22:02:11.333Z,11.20
2017-10-10T22:04:38.806Z,11.30
2017-10-10T22:07:06.286Z,11.30
2017-10-10T22:09:33.774Z,11.30
2017-10-10T22:12:01.250Z,11.30
2017-10-10T22:14:29.512Z,11.30
2017-10-10T22:16:56.990Z,11.30
2017-10-10T22:19:25.235Z,11.10
2017-10-10T22:21:52.730Z,11.10
2017-10-10T22:24:20.204Z,11.10
2017-10-10T22:26:47.681Z,11.00
2017-10-10T22:29:15.430Z,11.10
2017-10-10T22:31:42.901Z,11.10
2017-10-10T22:34:10.389Z,11.20
2017-10-10T22:36:37.866Z,11.20
2017-10-10T22:39:06.105Z,11.20
2017-10-10T22:41:33.724Z,11.10
2017-10-10T22:44:01.197Z,11.10
2017-10-10T22:46:28.709Z,11.00
2017-10-10T22:48:56.945Z,11.00
2017-10-10T22:51:24.417Z,11.00
2017-10-10T22:53:52.909Z,11.00
2017-10-10T22:56:20.382Z,11.10
2017-10-10T22:58:48.621Z,11.20
2017-10-10T23:01:16.112Z,11.20
2017-10-10T23:03:44.354Z,11.30
2017-10-10T23:06:11.850Z,11.30
2017-10-10T23:08:40.085Z,11.30
2017-10-10T23:11:07.557Z,11.40
2017-10-10T23:13:35.057Z,11.40
2017-10-10T23:16:02.529Z,11.40
2017-10-10T23:18:30.001Z,11.40
2017-10-10T23:20:57.493Z,11.40
2017-10-10T23:23:24.967Z,11.40
2017-10-10T23:25:53.202Z,11.40
2017-10-10T23:28:21.461Z,11.30
2017-10-10T23:43:38.822Z,12.00
2017-10-10T23:46:07.061Z,12.00
2017-10-10T23:48:34.553Z,11.90
2017-10-10T23:51:02.789Z,11.80
2017-10-10T23:53:30.534Z,11.80
2017-10-10T23:55:58.025Z,11.70
2017-10-10T23:58:25.503Z,11.60
